Weather at Blackwell PZ

Public forecast

Using degrees Fahrenheit for public forecast. Weather courtesy of forecast.io.

Closest aviation weather report (METAR) to Blackwell PZ

Closest report is Giddings-Lee County Airport, 15.6 nm (28.9 km) ESE.

2024/05/22 04:15 (retrieved 19 minutes ago)

KGYB 220415Z 7SM BKN016 26/24 A2987 RMK AO2 T02640237

Closest aviation forecast (TAF) to Blackwell PZ

Forecast is more than 12 hours old.

Closest forecast is Randolph Air Force Base, 67.6 nm (125.2 km) SW.

2024/05/21 16:24 (retrieved 12 hours ago)

TAF KRND 211550Z 2116/2222 17015KT 8000 HZ SCT025 BKN250 QNH2975INS TEMPO 2116/2117 BKN025 BKN250 BECMG 2117/2118 17012G18KT 9999 NSW SCT035 SCT250 QNH2965INS BECMG 2123/2124 14015G20KT 9999 FEW050 FEW250 QNH2967INS TEMPO 2201/2207 14018G25KT BECMG 2206/2207 15012KT 9999 BKN009 BKN017 QNH2981INS BECMG 2211/2212 15006KT 4800 BR BKN004 OVC009 QNH2982INS BECMG 2214/2215 15010KT 6000 HZ BKN015 BKN035 QNH2984INS BECMG 2215/2216 17015G20KT 9999 NSW SCT025 BKN250 QNH2976INS TX36/2120Z TN25/2211Z LAST NO AMDS AFT 2200 NEXT 2210